Latest Weather Observations for Wynyard

IDT60801

Issued at 7:33 pm EDT Friday 19 December 2014 (issued every 30 minutes, with the page automatically refreshed every 10 minutes)

About weather observations | Map of weather stations | Latest weather observations for TAS | Other Formats
Station Details ID: 091107 Name: WYNYARD AIRPORT Lat: -41.00 Lon: 145.73 Height: 12.0 m
Data from the previous 72 hours. | See also: Recent months at Wynyard
Date/Time
EDT
Temp
°C
App
Temp
°C
Dew
Point
Rel
Hum
%
Delta-T
°C
Wind Press
QNH
hPa
Press
MSL
hPa
Rain
since 9 am
mm
Dir
 
Spd
km/h
Gust
km/h
Spd
kts
Gust
kts
19/07:30pm 15.1 9.4 6.7 57 4.1 WSW 26 32 14 17 1015.5 1015.5 0.0
19/07:00pm 15.6 11.6 6.6 55 4.4 WSW 17 24 9 13 1015.3 1015.3 0.0
19/06:30pm 16.0 10.9 6.2 52 4.8 SW 22 32 12 17 1014.9 1014.9 0.0
19/06:00pm 16.3 11.3 6.4 52 4.8 SW 22 35 12 19 1014.8 1014.8 0.0
19/05:30pm 16.2 10.0 6.1 51 4.9 WSW 28 37 15 20 1014.7 1014.7 0.0
19/05:00pm 16.7 9.6 5.3 47 5.5 WSW 32 43 17 23 1014.4 1014.4 0.0
19/04:30pm 16.8 9.7 5.7 48 5.4 W 32 39 17 21 1014.3 1014.3 0.0
19/04:00pm 18.4 11.3 5.6 43 6.2 WSW 32 41 17 22 1014.2 1014.2 0.0
19/03:30pm 19.4 12.0 5.1 39 7.0 WSW 33 44 18 24 1014.0 1014.0 0.0
19/03:00pm 19.4 13.1 5.8 41 6.7 WSW 28 44 15 24 1013.9 1013.9 0.0
19/02:30pm 19.3 12.3 4.3 37 7.2 WSW 30 43 16 23 1013.7 1013.7 0.0
19/02:00pm 18.9 13.2 4.7 39 6.8 WSW 24 39 13 21 1013.7 1013.7 0.0
19/01:30pm 17.5 11.4 4.8 43 6.1 WSW 26 41 14 22 1013.7 1013.7 0.0
19/01:00pm 17.6 11.7 5.9 46 5.7 SW 26 37 14 20 1013.8 1013.8 0.0
19/12:30pm 18.2 13.0 5.4 43 6.2 SW 22 33 12 18 1013.7 1013.7 0.0
19/12:00pm 17.5 11.9 5.4 45 5.8 SW 24 33 13 18 1013.8 1013.8 0.0
19/11:30am 15.7 11.5 5.6 51 4.8 WSW 17 24 9 13 1014.0 1014.0 0.0
19/11:00am 15.9 11.3 5.5 50 5.0 SW 19 30 10 16 1014.0 1014.0 0.0
19/10:30am 16.3 12.7 8.3 59 4.1 WSW 17 28 9 15 1014.1 1014.1 0.0
19/10:00am 14.6 10.2 7.6 63 3.5 SW 20 32 11 17 1014.3 1014.3 0.0
19/09:30am 14.4 9.0 6.5 59 3.8 SW 24 37 13 20 1013.9 1013.9 0.0
19/09:00am 14.4 9.4 6.5 59 3.8 WSW 22 37 12 20 1013.7 1013.7 4.2
19/08:30am 13.3 8.0 6.9 65 3.1 SW 24 37 13 20 1013.4 1013.4 4.2
19/08:00am 12.6 8.2 7.3 70 2.6 SW 20 28 11 15 1013.2 1013.2 4.2
19/07:30am 11.6 6.4 7.1 74 2.2 SW 24 33 13 18 1012.7 1012.7 4.2
19/07:00am 10.8 6.9 7.3 79 1.7 SW 17 24 9 13 1012.3 1012.3 4.2
19/06:30am 9.3 5.4 7.1 86 1.0 WSW 17 20 9 11 1012.1 1012.1 4.2
19/05:30am 8.6 4.8 7.4 92 0.6 WSW 17 22 9 12 1011.1 1011.1 4.2
19/05:00am 7.2 3.3 6.9 98 0.1 W 17 20 9 11 1010.6 1010.6 4.2
19/04:30am 7.0 3.4 6.7 98 0.1 W 15 17 8 9 1010.3 1010.3 4.2
19/04:00am 7.0 3.4 6.7 98 0.1 WSW 15 17 8 9 1010.3 1010.3 4.2
19/03:30am 6.5 2.8 6.2 98 0.1 W 15 17 8 9 1010.3 1010.3 4.2
19/03:00am 6.9 3.6 6.3 96 0.3 WSW 13 15 7 8 1010.1 1010.1 4.2
19/02:30am 7.7 4.2 7.0 95 0.3 W 15 19 8 10 1009.9 1009.9 4.2
19/02:00am 7.1 4.3 6.8 98 0.1 WSW 11 13 6 7 1010.0 1010.0 4.2
19/01:30am 7.2 3.9 6.3 94 0.4 WSW 13 17 7 9 1009.9 1009.9 4.2
19/01:00am 8.4 4.5 7.2 92 0.6 W 17 20 9 11 1009.6 1009.6 4.2
19/12:30am 8.8 5.0 7.6 92 0.6 W 17 19 9 10 1009.5 1009.5 4.2
 
Date/Time
EDT
Temp
°C
App
Temp
°C
Dew
Point
Rel
Hum
%
Delta-T
°C
Wind Press
QNH
hPa
Press
MSL
hPa
Rain
since 9 am
mm
Dir
 
Spd
km/h
Gust
km/h
Spd
kts
Gust
kts
18/11:30pm 9.2 5.8 7.6 90 0.8 WSW 15 20 8 11 1009.1 1009.1 4.2
18/11:00pm 9.5 6.5 7.8 89 0.8 WSW 13 17 7 9 1008.8 1008.8 4.2
18/10:30pm 9.7 6.3 7.8 88 0.9 WSW 15 17 8 9 1008.7 1008.7 4.2
18/10:00pm 10.6 7.2 7.8 83 1.4 WSW 15 19 8 10 1008.4 1008.4 4.2
18/09:30pm 11.1 7.7 7.6 79 1.7 WSW 15 17 8 9 1008.0 1008.0 4.2
18/09:00pm 11.9 8.1 7.6 75 2.1 WSW 17 22 9 12 1007.5 1007.5 4.2
18/08:30pm 13.3 9.0 8.0 70 2.6 WSW 20 28 11 15 1007.0 1007.0 4.2
18/08:00pm 14.5 9.8 7.8 64 3.3 WSW 22 30 12 16 1006.5 1006.5 4.0
18/07:30pm 15.6 10.7 8.4 62 3.6 WSW 24 35 13 19 1006.0 1006.0 4.0
18/07:00pm 15.7 10.5 8.7 63 3.6 WSW 26 33 14 18 1005.3 1005.3 4.0
18/06:30pm 16.7 11.5 8.9 60 4.0 WSW 26 41 14 22 1004.7 1004.7 4.0
18/06:20pm 16.4 10.9 9.3 63 3.7 WSW 28 44 15 24 1004.5 1004.5 4.0
18/06:00pm 16.7 13.4 10.8 68 3.2 W 19 24 10 13 1004.3 1004.3 4.0
18/05:30pm 15.4 12.0 11.4 77 2.1 W 20 28 11 15 1004.1 1004.1 4.0
18/05:00pm 16.5 12.6 12.1 75 2.4 W 24 33 13 18 1004.0 1004.0 4.0
18/04:30pm 14.7 11.7 12.4 86 1.3 WSW 20 28 11 15 1004.0 1004.0 4.0
18/04:00pm 13.6 11.6 12.8 95 0.4 W 15 20 8 11 1003.9 1003.9 4.0
18/03:30pm 12.7 11.2 11.9 95 0.4 WSW 11 17 6 9 1003.9 1003.9 4.0
18/03:00pm 12.7 11.0 12.5 99 0.1 W 13 19 7 10 1004.0 1004.0 3.6
18/02:30pm 12.7 9.6 12.2 97 0.3 W 20 26 11 14 1003.8 1003.8 2.6
18/02:21pm 12.9 10.1 12.6 98 0.2 WNW 19 22 10 12 1003.7 1003.7 2.2
18/02:00pm 13.1 6.7 10.6 85 1.3 NW 35 63 19 34 1003.8 1003.8 1.2
18/01:55pm 15.9 10.9 10.9 72 2.7 NW 28 48 15 26 1003.2 1003.2 0.0
18/01:30pm 16.5 12.2 10.8 69 3.0 NNW 24 35 13 19 1003.2 1003.2 0.0
18/01:00pm 16.6 12.7 10.7 68 3.2 NNW 22 37 12 20 1003.5 1003.5 0.0
18/12:30pm 16.6 13.0 11.7 73 2.7 NNW 22 33 12 18 1003.7 1003.7 0.0
18/12:00pm 17.0 14.0 11.9 72 2.8 NNW 19 28 10 15 1003.6 1003.6 0.0
18/11:30am 16.7 12.9 11.2 70 3.0 NNW 22 30 12 16 1003.8 1003.8 0.0
18/11:00am 16.6 13.6 10.5 67 3.3 NNW 17 24 9 13 1004.0 1004.0 0.0
18/10:30am 17.1 12.5 9.8 62 3.8 NNW 24 35 13 19 1004.1 1004.1 0.0
18/10:00am 15.9 12.9 10.7 71 2.8 N 17 28 9 15 1004.4 1004.4 0.0
18/09:30am 16.0 13.5 11.2 73 2.6 N 15 22 8 12 1004.6 1004.6 0.0
18/09:00am 15.6 12.5 10.4 71 2.8 NNW 17 26 9 14 1004.8 1004.8 0.0
18/08:30am 15.7 12.7 10.7 72 2.7 N 17 24 9 13 1004.9 1004.9 0.0
18/08:00am 15.5 12.1 10.5 72 2.6 N 19 26 10 14 1004.8 1004.8 0.0
18/07:30am 13.0 12.0 10.9 87 1.1 WSW 7 11 4 6 1004.8 1004.8 0.0
18/07:00am 11.2 11.4 10.6 96 0.3 CALM 0 0 0 0 1004.9 1004.9 0.0
18/06:30am 9.8 9.0 9.5 98 0.1 SW 4 11 2 6 1005.0 1005.0 0.0
18/06:00am 9.4 8.1 9.3 99 0.0 WSW 6 9 3 5 1004.9 1004.9 0.0
18/05:30am 8.9 7.3 8.6 98 0.1 WSW 7 9 4 5 1005.1 1005.1 0.0
18/05:00am 8.8 7.1 8.5 98 0.1 WSW 7 9 4 5 1005.2 1005.2 0.0
18/04:30am 8.4 6.7 8.3 99 0.0 WSW 7 9 4 5 1005.2 1005.2 0.0
18/04:00am 8.1 6.5 8.0 99 0.0 W 6 7 3 4 1005.3 1005.3 0.0
18/03:30am 7.9 5.7 7.8 99 0.0 WSW 9 13 5 7 1005.6 1005.6 0.0
18/03:00am 7.4 4.7 7.3 99 0.0 W 11 15 6 8 1005.9 1005.9 0.0
18/02:30am 6.7 3.8 6.6 99 0.0 W 11 13 6 7 1005.9 1005.9 0.0
18/02:00am 6.8 3.6 6.7 99 0.0 W 13 13 7 7 1005.9 1005.9 0.0
18/01:30am 6.5 4.0 6.4 99 0.0 W 9 11 5 6 1006.0 1006.0 0.0
18/01:00am 6.3 3.7 6.2 99 0.0 WSW 9 11 5 6 1006.3 1006.3 0.0
18/12:30am 7.2 5.2 7.1 99 0.0 SW 7 9 4 5 1006.3 1006.3 0.0
18/12:00am 7.1 5.0 6.8 98 0.1 SW 7 9 4 5 1006.7 1006.7 0.0
 
Date/Time
EDT
Temp
°C
App
Temp
°C
Dew
Point
Rel
Hum
%
Delta-T
°C
Wind Press
QNH
hPa
Press
MSL
hPa
Rain
since 9 am
mm
Dir
 
Spd
km/h
Gust
km/h
Spd
kts
Gust
kts
17/11:30pm 7.7 5.2 6.6 93 0.5 WNW 9 11 5 6 1007.1 1007.1 0.0
17/11:00pm 8.5 6.7 7.1 91 0.7 WSW 6 7 3 4 1007.2 1007.2 0.0
17/10:30pm 8.7 6.8 7.5 92 0.6 SW 7 7 4 4 1007.5 1007.5 0.0
17/10:00pm 9.2 6.7 6.6 84 1.2 WSW 9 9 5 5 1007.6 1007.6 0.0
17/09:30pm 12.0 9.5 6.5 69 2.6 NW 9 11 5 6 1007.5 1007.5 0.0
17/09:00pm 12.3 8.9 6.1 66 2.9 WNW 13 17 7 9 1007.4 1007.4 0.0
17/08:30pm 13.6 10.2 5.7 59 3.7 W 13 17 7 9 1007.2 1007.2 0.0
17/08:00pm 14.3 9.7 5.4 55 4.2 W 19 24 10 13 1007.1 1007.1 0.0
17/07:30pm 15.9 11.2 5.2 49 5.1 W 19 24 10 13 1006.7 1006.7 0.0
17/07:00pm 16.0 10.7 5.0 48 5.2 WNW 22 32 12 17 1006.6 1006.6 0.0
17/06:30pm 16.9 11.5 4.3 43 5.9 W 22 32 12 17 1006.2 1006.2 0.0
17/06:00pm 17.5 11.7 4.5 42 6.2 WNW 24 39 13 21 1006.1 1006.1 0.0
17/05:30pm 16.2 10.9 5.2 48 5.2 WSW 22 28 12 15 1006.2 1006.2 0.0
17/05:00pm 16.7 10.7 5.3 47 5.5 WSW 26 41 14 22 1006.2 1006.2 0.0
17/04:30pm 17.5 11.0 6.4 48 5.5 W 30 39 16 21 1006.0 1006.0 0.0
17/04:00pm 17.7 11.8 3.9 40 6.5 WSW 24 37 13 20 1005.8 1005.8 0.0
17/03:30pm 17.0 10.9 4.7 44 5.8 W 26 39 14 21 1005.9 1005.9 0.0
17/03:00pm 18.7 12.2 6.5 45 6.1 WNW 30 46 16 25 1006.0 1006.0 0.0
17/02:56pm 18.2 11.8 5.4 43 6.2 W 28 46 15 25 1006.0 1006.0 0.0
17/02:30pm 17.7 12.9 7.4 51 5.2 W 22 32 12 17 1006.2 1006.2 0.0
17/02:00pm 16.6 9.7 6.4 51 5.0 WSW 32 43 17 23 1006.3 1006.3 0.0
17/01:30pm 18.1 11.8 5.7 44 6.0 WSW 28 35 15 19 1006.0 1006.0 0.0
17/01:00pm 18.3 13.2 5.8 44 6.1 WSW 22 32 12 17 1006.0 1006.0 0.0
17/12:30pm 17.6 12.6 8.2 54 4.8 WSW 24 35 13 19 1006.0 1006.0 0.0
17/12:00pm 17.3 13.3 9.0 58 4.3 WNW 20 28 11 15 1006.0 1006.0 0.0
17/11:30am 15.3 9.2 6.8 57 4.2 W 28 39 15 21 1005.9 1005.9 0.0
17/11:00am 15.7 11.4 8.0 60 3.9 WNW 20 28 11 15 1005.5 1005.5 0.0
17/10:30am 14.6 8.6 7.2 61 3.6 WSW 28 37 15 20 1005.5 1005.5 0.0
17/10:00am 14.6 9.6 7.9 64 3.3 W 24 35 13 19 1005.3 1005.3 0.0
17/09:30am 14.1 9.7 7.6 65 3.2 WSW 20 35 11 19 1005.2 1005.2 0.0
17/09:09am 13.4 7.4 7.2 66 3.0 WSW 28 50 15 27 1005.1 1005.1 0.0
17/09:00am 14.4 10.3 8.6 68 2.9 WSW 20 32 11 17 1004.9 1004.9 3.8
17/08:30am 13.1 8.8 8.0 71 2.5 WSW 20 28 11 15 1004.8 1004.8 3.8
17/08:00am 12.4 9.1 7.9 74 2.2 WSW 15 24 8 13 1004.4 1004.4 3.8
17/07:30am 11.3 7.8 7.2 76 2.0 W 15 22 8 12 1003.9 1003.9 3.8
17/07:00am 10.2 7.6 7.8 85 1.2 W 11 15 6 8 1003.4 1003.4 3.8
17/06:30am 8.7 5.6 7.3 91 0.7 WNW 13 17 7 9 1002.8 1002.8 3.8
17/06:00am 7.9 4.3 6.8 93 0.5 WNW 15 19 8 10 1002.5 1002.5 3.8
17/05:30am 7.5 4.3 6.8 95 0.3 W 13 15 7 8 1001.9 1001.9 3.8
17/05:00am 8.2 4.7 7.0 92 0.6 W 15 22 8 12 1001.2 1001.2 3.8
17/04:30am 8.8 4.9 7.3 90 0.7 WSW 17 24 9 13 1000.7 1000.7 3.8
17/04:00am 9.0 5.2 7.6 91 0.7 W 17 22 9 12 1000.6 1000.6 3.8
17/03:30am 9.0 4.8 7.6 91 0.7 WSW 19 22 10 12 1000.0 1000.0 3.8
17/03:00am 9.5 4.4 7.8 89 0.8 WSW 24 32 13 17 999.6 999.6 3.8
17/02:30am 9.6 4.9 7.7 88 0.9 WSW 22 32 12 17 999.1 999.1 3.6
17/02:00am 9.8 4.8 7.9 88 0.9 WSW 24 30 13 16 998.8 998.8 3.6
17/01:30am 10.1 5.6 8.4 89 0.8 W 22 30 12 16 998.7 998.7 3.6
17/01:00am 10.5 6.0 8.4 87 1.0 WSW 22 30 12 16 998.3 998.3 3.6
17/12:30am 10.9 6.1 8.7 86 1.1 W 24 37 13 20 997.9 997.9 3.6
17/12:00am 11.1 6.8 9.2 88 1.0 W 22 35 12 19 997.9 997.9 3.6
 
Date/Time
EDT
Temp
°C
App
Temp
°C
Dew
Point
Rel
Hum
%
Delta-T
°C
Wind Press
QNH
hPa
Press
MSL
hPa
Rain
since 9 am
mm
Dir
 
Spd
km/h
Gust
km/h
Spd
kts
Gust
kts
16/11:30pm 11.0 5.6 9.4 90 0.8 W 28 39 15 21 997.4 997.4 3.6
16/11:00pm 11.6 7.5 10.0 90 0.8 W 22 35 12 19 997.1 997.1 3.6
16/10:30pm 11.3 6.0 9.7 90 0.8 WSW 28 37 15 20 996.2 996.2 3.6
16/10:00pm 11.6 6.8 10.3 92 0.7 W 26 35 14 19 995.6 995.6 3.4
16/09:30pm 11.6 8.2 11.1 97 0.3 WNW 20 26 11 14 994.5 994.5 3.4
16/09:00pm 11.2 7.2 10.3 94 0.5 W 22 30 12 16 993.9 993.9 3.2
16/08:30pm 12.0 7.3 10.7 92 0.7 WSW 26 35 14 19 993.1 993.1 3.0
16/08:07pm 12.1 6.6 10.7 91 0.7 W 30 37 16 20 992.4 992.4 3.0
16/08:00pm 12.3 6.3 10.9 91 0.7 W 33 48 18 26 992.4 992.4 2.8
16/07:56pm 12.5 6.2 10.9 90 0.8 W 35 54 19 29 992.4 992.4 2.6
16/07:36pm 13.7 7.5 10.1 79 1.9 W 33 52 18 28 991.9 991.9 2.2

Other Formats:

Comma delimited format used in spreadsheet applications
http://www.bom.gov.au/fwo/IDT60801/IDT60801.95957.axf

JavaScript Object Notation format (JSON) in row-major order
http://www.bom.gov.au/fwo/IDT60801/IDT60801.95957.json